Time;durP1;ratioP1;P1;durP2;ratioP2;P2;SDS_P1;SDS_P2;PMS_P1;PMS_P2;Temp;Humidity;BMP_temperature;BMP_pressure;BME280_temperature;BME280_humidity;BME280_pressure;Samples;Min_cycle;Max_cycle;Signal;HPM_P1;HPM_P2
2022/03/29 00:01:16;;;;;;;20.55;8.52;;;;;;;18.52;38.52;101377.13;4974995;28;20097;-68
2022/03/29 00:03:42;;;;;;;24.92;7.78;;;;;;;18.51;38.80;101371.84;4975142;28;20167;-67
2022/03/29 00:06:07;;;;;;;20.38;7.57;;;;;;;18.48;37.67;101372.22;4974823;28;20543;-68
2022/03/29 00:08:33;;;;;;;33.55;8.50;;;;;;;18.47;37.75;101368.59;4973558;28;20592;-68
2022/03/29 00:10:58;;;;;;;17.10;7.70;;;;;;;18.44;38.00;101370.78;4974315;28;20031;-67
2022/03/29 00:13:24;;;;;;;21.75;8.18;;;;;;;18.40;38.01;101362.13;4974666;28;20122;-68
2022/03/29 00:15:49;;;;;;;14.80;7.70;;;;;;;18.41;38.10;101368.41;4974593;28;20070;-68
2022/03/29 00:18:15;;;;;;;25.02;7.57;;;;;;;18.38;39.04;101357.88;4975049;28;20065;-68
2022/03/29 00:20:40;;;;;;;24.25;7.82;;;;;;;18.40;37.23;101361.28;4975099;28;20037;-68
2022/03/29 00:23:06;;;;;;;21.77;7.97;;;;;;;18.37;37.75;101361.63;4974833;28;20027;-68
2022/03/29 00:25:31;;;;;;;16.20;7.50;;;;;;;18.35;38.25;101358.22;4975277;28;20038;-67
2022/03/29 00:27:57;;;;;;;18.63;7.43;;;;;;;18.30;38.56;101350.59;4974790;28;20098;-67
2022/03/29 00:30:22;;;;;;;18.27;7.40;;;;;;;18.28;37.89;101346.34;4974478;28;20035;-68
2022/03/29 00:32:47;;;;;;;19.67;7.95;;;;;;;18.26;38.11;101348.38;4974387;28;20486;-67
2022/03/29 00:35:13;;;;;;;20.40;7.97;;;;;;;18.22;37.88;101347.00;4973589;28;20054;-67
2022/03/29 00:37:40;;;;;;;23.00;8.60;;;;;;;18.20;38.39;101341.75;4974873;28;20498;-68
2022/03/29 00:40:08;;;;;;;18.70;7.38;;;;;;;18.16;38.41;101334.97;4974885;28;20026;-68
2022/03/29 00:42:34;;;;;;;27.48;7.93;;;;;;;18.17;39.08;101338.53;4975069;28;20427;-68
2022/03/29 00:45:00;;;;;;;22.05;8.93;;;;;;;18.16;39.11;101336.81;4974911;28;20031;-68
2022/03/29 00:47:25;;;;;;;18.60;7.43;;;;;;;18.17;37.84;101333.13;4974373;28;20034;-66
2022/03/29 00:49:51;;;;;;;22.70;7.45;;;;;;;18.15;38.67;101329.69;4973218;28;20031;-69
2022/03/29 00:52:16;;;;;;;20.80;7.72;;;;;;;18.13;39.38;101326.31;4973187;28;20046;-68
2022/03/29 00:54:42;;;;;;;21.63;8.25;;;;;;;18.12;39.43;101324.63;4974453;28;20027;-68
2022/03/29 00:57:07;;;;;;;23.17;8.77;;;;;;;18.11;38.75;101323.78;4973055;28;20030;-68
2022/03/29 00:59:33;;;;;;;17.85;7.78;;;;;;;18.08;39.74;101318.69;4974749;28;20058;-69
2022/03/29 01:02:01;;;;;;;18.70;9.05;;;;;;;18.08;38.61;101324.09;4974479;28;20113;-67
2022/03/29 01:04:27;;;;;;;17.15;6.97;;;;;;;18.05;39.40;101319.00;4974639;28;20062;-69
2022/03/29 01:06:53;;;;;;;20.48;7.80;;;;;;;18.06;38.67;101318.00;4974450;28;20029;-66
2022/03/29 01:09:19;;;;;;;23.50;6.82;;;;;;;18.02;39.84;101312.06;4974326;28;20029;-68
2022/03/29 01:11:44;;;;;;;18.52;8.43;;;;;;;18.03;39.35;101311.03;4973112;28;20113;-68
2022/03/29 01:14:10;;;;;;;26.58;7.40;;;;;;;18.02;38.70;101313.91;4974574;28;20026;-67
2022/03/29 01:19:22;;;;;;;17.50;6.45;;;;;;;17.99;39.94;101303.41;4974241;28;20034;-68
2022/03/29 01:21:56;;;;;;;23.98;8.85;;;;;;;17.96;39.67;101301.88;4974789;28;20027;-67
2022/03/29 01:24:22;;;;;;;19.92;7.28;;;;;;;17.96;39.43;101296.44;4977545;28;20027;-68
2022/03/29 01:26:49;;;;;;;16.65;8.30;;;;;;;17.93;38.30;101288.66;4976250;28;20049;-67
2022/03/29 01:29:14;;;;;;;24.10;8.07;;;;;;;17.91;39.47;101289.84;4976552;28;20420;-68
2022/03/29 01:31:40;;;;;;;21.90;8.30;;;;;;;17.89;39.65;101287.31;4976230;28;20117;-68
2022/03/29 01:34:05;;;;;;;16.55;7.95;;;;;;;17.88;39.57;101290.16;4976287;28;20037;-69
2022/03/29 01:36:31;;;;;;;14.73;8.15;;;;;;;17.86;38.56;101287.63;4975986;28;20018;-68
2022/03/29 01:38:56;;;;;;;14.38;7.43;;;;;;;17.82;38.66;101275.41;4977436;28;20034;-67
2022/03/29 01:41:22;;;;;;;18.27;7.28;;;;;;;17.80;39.21;101280.16;4977252;28;20065;-68
2022/03/29 01:43:47;;;;;;;13.88;6.97;;;;;;;17.80;39.02;101284.72;4977062;28;20077;-68
2022/03/29 01:46:12;;;;;;;21.40;7.78;;;;;;;17.77;38.97;101272.34;4977415;28;20057;-69
2022/03/29 01:48:38;;;;;;;16.17;6.70;;;;;;;17.77;40.05;101272.34;4975583;28;20485;-68
2022/03/29 01:51:07;;;;;;;23.88;8.57;;;;;;;17.77;39.28;101272.34;4976839;28;20046;-67
2022/03/29 01:53:32;;;;;;;21.17;7.32;;;;;;;17.78;40.04;101267.78;4976084;28;20031;-68
2022/03/29 01:55:59;;;;;;;22.17;7.82;;;;;;;17.75;39.04;101263.53;4976958;28;20026;-68
2022/03/29 01:58:26;;;;;;;25.13;8.77;;;;;;;17.77;39.63;101269.63;4977257;28;20392;-68
2022/03/29 02:00:51;;;;;;;30.05;7.85;;;;;;;17.76;39.38;101258.94;4977083;28;20031;-68
2022/03/29 02:03:16;;;;;;;21.83;8.57;;;;;;;17.76;39.64;101259.78;4976897;28;20033;-68
2022/03/29 02:05:42;;;;;;;32.17;9.10;;;;;;;17.77;39.41;101250.66;4976927;28;20031;-68
2022/03/29 02:08:07;;;;;;;29.20;8.77;;;;;;;17.78;38.86;101252.34;4976939;28;20031;-69
2022/03/29 02:10:33;;;;;;;20.50;8.63;;;;;;;17.78;39.71;101246.94;4976493;28;20035;-68
2022/03/29 02:12:58;;;;;;;25.77;8.98;;;;;;;17.79;39.21;101236.94;4976873;28;20083;-69
2022/03/29 02:15:24;;;;;;;22.08;9.35;;;;;;;17.83;39.02;101239.16;4975640;28;20033;-68
2022/03/29 02:17:49;;;;;;;23.35;8.40;;;;;;;17.86;40.24;101238.84;4976481;28;20019;-68
2022/03/29 02:20:15;;;;;;;16.98;8.70;;;;;;;17.90;40.04;101240.19;4976640;28;20038;-68
2022/03/29 02:22:41;;;;;;;25.65;8.80;;;;;;;17.94;39.72;101230.72;4976731;28;20027;-68
2022/03/29 02:25:07;;;;;;;26.02;9.63;;;;;;;17.96;39.81;101234.09;4976517;28;20432;-69
2022/03/29 02:27:32;;;;;;;29.75;9.77;;;;;;;17.98;40.84;101218.50;4976631;28;20035;-68
2022/03/29 02:29:58;;;;;;;24.33;9.40;;;;;;;18.02;40.62;101216.31;4976475;28;20033;-68
2022/03/29 02:32:23;;;;;;;19.42;8.77;;;;;;;18.02;39.63;101214.47;4976175;28;20018;-68
2022/03/29 02:34:48;;;;;;;17.60;8.45;;;;;;;18.07;40.16;101213.94;4976444;28;20110;-68
2022/03/29 02:37:14;;;;;;;20.75;8.60;;;;;;;18.06;39.92;101200.56;4976301;28;20030;-68
2022/03/29 02:39:40;;;;;;;21.88;8.85;;;;;;;18.08;40.47;101203.97;4976171;28;20034;-67
2022/03/29 02:42:06;;;;;;;25.63;9.00;;;;;;;18.06;40.38;101195.16;4976499;28;20031;-68
2022/03/29 02:44:32;;;;;;;24.20;9.23;;;;;;;18.07;40.90;101196.81;4976391;28;20026;-69
2022/03/29 02:46:57;;;;;;;23.45;8.20;;;;;;;18.07;40.40;101191.41;4976465;28;20168;-68
2022/03/29 02:49:24;;;;;;;26.55;8.90;;;;;;;18.08;40.90;101180.41;4975932;28;20042;-68
2022/03/29 02:51:50;;;;;;;26.40;9.68;;;;;;;18.08;40.30;101179.56;4976244;28;20369;-69
2022/03/29 02:54:16;;;;;;;22.10;8.98;;;;;;;18.12;40.05;101179.03;4974599;28;20034;-68
2022/03/29 02:56:41;;;;;;;25.13;9.02;;;;;;;18.11;40.60;101181.94;4975704;28;20019;-68
2022/03/29 02:59:07;;;;;;;20.95;8.55;;;;;;;18.13;40.63;101178.03;4974676;28;20027;-68
2022/03/29 03:01:33;;;;;;;22.23;8.82;;;;;;;18.15;40.35;101181.41;4975817;28;20476;-67
2022/03/29 03:03:58;;;;;;;23.95;8.48;;;;;;;18.15;40.74;101175.13;4975791;28;20062;-68
2022/03/29 03:06:24;;;;;;;26.52;9.18;;;;;;;18.15;40.50;101180.56;4975649;28;20045;-68
2022/03/29 03:08:50;;;;;;;19.30;9.15;;;;;;;18.16;40.07;101179.56;4975537;28;20034;-67
2022/03/29 03:11:15;;;;;;;27.55;10.00;;;;;;;18.16;39.83;101174.97;4975808;28;20027;-68
2022/03/29 03:13:41;;;;;;;27.42;10.13;;;;;;;18.17;40.43;101175.84;4975696;28;20110;-67
2022/03/29 03:16:06;;;;;;;24.23;9.50;;;;;;;18.16;40.53;101174.97;4975648;28;20061;-68
2022/03/29 03:18:32;;;;;;;24.83;9.65;;;;;;;18.16;40.07;101174.97;4975535;28;20400;-68
2022/03/29 03:20:58;;;;;;;20.48;8.15;;;;;;;18.15;39.63;101175.13;4975513;28;20023;-69
2022/03/29 03:23:24;;;;;;;29.77;9.85;;;;;;;18.13;39.96;101174.47;4975394;28;20027;-68
2022/03/29 03:25:50;;;;;;;21.17;8.13;;;;;;;18.13;39.96;101179.88;4976086;28;20022;-67
2022/03/29 03:28:15;;;;;;;21.75;9.13;;;;;;;18.12;40.21;101173.63;4975371;28;20031;-68
2022/03/29 03:30:41;;;;;;;30.90;9.88;;;;;;;18.11;40.33;101171.94;4975404;28;20056;-68
2022/03/29 03:33:06;;;;;;;25.13;10.02;;;;;;;18.10;39.78;101175.66;4975272;28;20023;-68
2022/03/29 03:35:32;;;;;;;27.55;9.77;;;;;;;18.08;39.92;101174.97;4975077;28;20558;-68
2022/03/29 03:37:57;;;;;;;18.48;8.02;;;;;;;18.06;39.99;101166.19;4975496;28;20416;-69
2022/03/29 03:40:23;;;;;;;23.92;8.80;;;;;;;18.07;39.80;101167.84;4974005;28;20026;-68
2022/03/29 03:42:48;;;;;;;21.90;8.77;;;;;;;18.06;39.85;101159.91;4975108;28;20031;-68
2022/03/29 03:45:13;;;;;;;19.15;8.88;;;;;;;18.04;40.34;101160.06;4975100;28;20102;-68
2022/03/29 03:47:39;;;;;;;19.23;8.95;;;;;;;18.00;40.76;101150.59;4974778;28;20527;-68
2022/03/29 03:50:05;;;;;;;24.73;9.60;;;;;;;18.00;40.55;101154.16;4975326;28;20045;-68
2022/03/29 03:52:31;;;;;;;25.35;9.98;;;;;;;17.98;40.77;101149.88;4975173;28;20026;-68
2022/03/29 03:54:56;;;;;;;22.85;8.77;;;;;;;17.98;39.86;101145.31;4973694;28;20417;-68
2022/03/29 03:57:22;;;;;;;21.63;9.23;;;;;;;17.95;39.87;101142.94;4974999;28;20085;-68
2022/03/29 03:59:49;;;;;;;25.90;8.90;;;;;;;17.93;40.47;101127.88;4973970;28;20058;-68
2022/03/29 04:02:15;;;;;;;21.05;8.90;;;;;;;17.91;40.50;101136.19;4975465;28;20106;-68
2022/03/29 04:04:40;;;;;;;29.80;9.10;;;;;;;17.88;39.93;101131.09;4974895;28;20050;-68
2022/03/29 04:07:06;;;;;;;24.50;10.48;;;;;;;17.87;40.15;101128.53;4974853;28;20093;-69
2022/03/29 04:09:35;;;;;;;31.48;12.30;;;;;;;17.85;40.33;101125.16;4973530;28;20053;-69
2022/03/29 04:12:03;;;;;;;25.60;10.80;;;;;;;17.84;40.64;101124.31;4975041;28;20022;-68
2022/03/29 04:14:29;;;;;;;22.15;9.60;;;;;;;17.80;39.84;101114.84;4974628;28;20081;-68
2022/03/29 04:16:54;;;;;;;25.40;9.63;;;;;;;17.80;40.61;101120.25;4974760;28;20383;-67
2022/03/29 04:19:20;;;;;;;24.20;10.38;;;;;;;17.79;39.84;101107.72;4975175;28;20030;-68
2022/03/29 04:21:45;;;;;;;21.48;9.65;;;;;;;17.77;39.78;101112.47;4974760;28;20027;-68
2022/03/29 04:24:10;;;;;;;20.95;9.45;;;;;;;17.74;39.70;101093.81;4975379;28;20026;-68
2022/03/29 04:26:36;;;;;;;32.90;9.70;;;;;;;17.75;39.35;101103.66;4975263;28;20019;-67
2022/03/29 04:29:01;;;;;;;21.27;9.85;;;;;;;17.74;41.18;101109.22;4974694;28;20110;-68
2022/03/29 04:31:26;;;;;;;26.17;9.60;;;;;;;17.71;40.83;101099.59;4974508;28;20476;-67
2022/03/29 04:33:52;;;;;;;22.77;9.95;;;;;;;17.72;40.76;101097.72;4974406;28;20050;-68
2022/03/29 04:36:17;;;;;;;26.92;10.38;;;;;;;17.69;40.51;101104.31;4974357;28;20015;-68
2022/03/29 04:38:45;;;;;;;23.13;9.23;;;;;;;17.70;39.99;101107.91;4974366;28;20053;-68
2022/03/29 04:41:10;;;;;;;28.30;10.52;;;;;;;17.66;41.19;101101.97;4974583;28;20042;-69
2022/03/29 04:43:36;;;;;;;23.55;9.25;;;;;;;17.67;40.74;101106.34;4974703;28;20027;-66
2022/03/29 04:46:02;;;;;;;25.00;9.32;;;;;;;17.67;40.85;101105.53;4974608;28;20151;-68
2022/03/29 04:48:28;;;;;;;24.27;8.85;;;;;;;17.68;39.44;101109.91;4974287;28;20550;-68
2022/03/29 04:50:53;;;;;;;28.60;9.05;;;;;;;17.66;40.00;101107.38;4974298;28;20130;-68
2022/03/29 04:53:18;;;;;;;28.52;10.70;;;;;;;17.66;40.87;101092.97;4974385;28;20113;-68
2022/03/29 04:55:44;;;;;;;26.00;9.68;;;;;;;17.64;40.86;101095.00;4974858;28;20038;-68
2022/03/29 04:58:10;;;;;;;26.23;10.02;;;;;;;17.62;39.96;101095.16;4978274;28;20019;-68
2022/03/29 05:00:35;;;;;;;20.90;8.88;;;;;;;17.62;41.15;101102.44;4978302;28;20054;-67
2022/03/29 05:03:01;;;;;;;23.38;10.77;;;;;;;17.61;40.04;101104.31;4978398;28;20026;-68
2022/03/29 05:05:26;;;;;;;30.15;10.10;;;;;;;17.59;40.25;101100.91;4978166;28;20019;-68
2022/03/29 05:07:52;;;;;;;23.13;9.57;;;;;;;17.59;40.22;101100.09;4978035;28;20061;-66
2022/03/29 05:10:17;;;;;;;22.65;10.50;;;;;;;17.57;41.30;101097.53;4976667;28;20029;-68
2022/03/29 05:12:46;;;;;;;22.80;10.43;;;;;;;17.57;40.05;101086.69;4976631;28;20034;-68
2022/03/29 05:15:13;;;;;;;20.15;9.98;;;;;;;17.55;41.41;101086.03;4978095;28;20034;-67
2022/03/29 05:17:39;;;;;;;23.77;10.32;;;;;;;17.52;40.62;101080.91;4977802;28;20109;-68
2022/03/29 05:20:06;;;;;;;26.50;10.18;;;;;;;17.51;40.34;101081.91;4978053;28;20114;-68
2022/03/29 05:22:31;;;;;;;27.40;11.52;;;;;;;17.50;39.69;101079.38;4977012;28;20022;-69
2022/03/29 05:24:58;;;;;;;24.98;10.35;;;;;;;17.47;40.26;101075.16;4977816;28;20085;-69
2022/03/29 05:27:23;;;;;;;20.77;9.90;;;;;;;17.44;40.51;101070.06;4977917;28;20022;-68
2022/03/29 05:29:48;;;;;;;30.52;10.15;;;;;;;17.41;39.97;101068.56;4976463;28;20030;-68
2022/03/29 05:32:18;;;;;;;19.27;10.35;;;;;;;17.42;39.69;101074.78;4977064;28;20110;-68
2022/03/29 05:34:47;;;;;;;24.75;9.02;;;;;;;17.40;40.91;101068.69;4977535;28;20041;-66
2022/03/29 05:37:14;;;;;;;30.67;12.05;;;;;;;17.41;39.87;101075.81;4977475;28;20038;-68
2022/03/29 05:39:43;;;;;;;25.80;11.32;;;;;;;17.41;40.76;101081.25;4978111;28;20396;-68
2022/03/29 05:42:09;;;;;;;20.85;10.32;;;;;;;17.41;40.50;101081.25;4977524;28;20027;-68
2022/03/29 05:44:35;;;;;;;23.65;11.27;;;;;;;17.42;40.15;101072.06;4977282;28;20032;-68
2022/03/29 05:49:50;;;;;;;22.35;10.20;;;;;;;17.43;41.15;101073.78;4975034;28;20062;-68
2022/03/29 05:52:15;;;;;;;26.33;10.00;;;;;;;17.43;41.07;101065.66;4977067;28;20039;-68
2022/03/29 05:54:44;;;;;;;27.65;11.10;;;;;;;17.41;41.09;101065.00;4976286;28;20039;-68
2022/03/29 05:57:11;;;;;;;24.67;11.13;;;;;;;17.46;41.57;101077.00;4977040;28;20481;-69
2022/03/29 05:59:36;;;;;;;26.42;11.35;;;;;;;17.47;40.68;101075.16;4976918;28;20054;-68
2022/03/29 06:02:04;;;;;;;25.92;10.88;;;;;;;17.47;41.54;101075.97;4976982;28;20027;-69
2022/03/29 06:04:31;;;;;;;31.65;13.85;;;;;;;17.49;41.52;101075.81;4977325;28;20027;-68
2022/03/29 06:06:56;;;;;;;25.77;10.55;;;;;;;17.48;40.87;101066.00;4977134;28;20027;-68
2022/03/29 06:09:22;;;;;;;27.63;11.15;;;;;;;17.47;40.77;101051.59;4976195;28;20027;-68
2022/03/29 06:11:48;;;;;;;26.90;11.73;;;;;;;17.48;40.00;101055.16;4976833;28;20073;-69
2022/03/29 06:14:14;;;;;;;22.85;10.63;;;;;;;17.47;41.07;101059.72;4975563;28;20054;-69
2022/03/29 06:16:40;;;;;;;25.65;11.13;;;;;;;17.48;41.16;101071.41;4976541;28;20033;-68
2022/03/29 06:19:06;;;;;;;23.52;10.90;;;;;;;17.47;41.34;101077.88;4976788;28;20547;-69
2022/03/29 06:21:32;;;;;;;29.30;12.50;;;;;;;17.47;41.17;101075.16;4976726;28;20022;-68
2022/03/29 06:23:57;;;;;;;25.48;12.05;;;;;;;17.49;40.05;101078.53;4976513;28;20106;-69
2022/03/29 06:26:22;;;;;;;23.55;11.02;;;;;;;17.49;40.24;101083.94;4976792;28;20027;-68
2022/03/29 06:28:48;;;;;;;26.95;11.73;;;;;;;17.51;40.45;101076.50;4975165;28;20110;-69
2022/03/29 06:31:13;;;;;;;25.55;11.18;;;;;;;17.53;40.52;101071.78;4976433;28;20480;-68
2022/03/29 06:33:38;;;;;;;29.73;11.55;;;;;;;17.55;40.77;101079.75;4976553;28;20110;-67
2022/03/29 06:36:04;;;;;;;26.70;12.55;;;;;;;17.54;39.77;101072.63;4976484;28;20472;-68
2022/03/29 06:38:31;;;;;;;27.23;10.63;;;;;;;17.52;40.27;101064.66;4976672;28;20038;-69
2022/03/29 06:40:58;;;;;;;28.05;11.90;;;;;;;17.50;40.28;101058.56;4976373;28;20365;-69
2022/03/29 06:43:23;;;;;;;25.20;11.02;;;;;;;17.50;40.62;101065.84;4974878;28;20034;-68
2022/03/29 06:45:48;;;;;;;27.80;11.23;;;;;;;17.46;40.58;101062.63;4974951;28;20032;-68
2022/03/29 06:48:14;;;;;;;31.13;11.68;;;;;;;17.42;40.57;101066.66;4976194;28;20043;-69
2022/03/29 06:50:39;;;;;;;28.77;11.40;;;;;;;17.41;41.69;101065.84;4976078;28;20388;-68
2022/03/29 06:53:06;;;;;;;24.92;11.40;;;;;;;17.38;41.66;101057.19;4974785;28;20034;-69
2022/03/29 06:55:31;;;;;;;34.72;12.02;;;;;;;17.36;40.37;101051.09;4976397;28;20026;-68
2022/03/29 06:57:57;;;;;;;29.27;12.35;;;;;;;17.31;41.10;101053.44;4976029;28;20388;-67
2022/03/29 07:00:22;;;;;;;32.10;12.77;;;;;;;17.29;40.15;101055.47;4975956;28;20113;-67
2022/03/29 07:02:49;;;;;;;27.70;12.18;;;;;;;17.27;40.55;101057.53;4975874;28;20026;-68
2022/03/29 07:05:14;;;;;;;32.28;12.48;;;;;;;17.32;40.09;101074.09;4975935;28;20022;-68
2022/03/29 07:07:41;;;;;;;29.13;11.63;;;;;;;17.37;40.58;101079.88;4974469;28;20388;-68
2022/03/29 07:12:57;;;;;;;29.92;11.60;;;;;;;17.49;40.46;101078.53;4975901;28;20037;-68
2022/03/29 07:15:23;;;;;;;29.83;11.13;;;;;;;17.52;40.76;101072.78;4975752;28;20042;-68
2022/03/29 07:17:48;;;;;;;27.42;11.38;;;;;;;17.61;40.30;101069.09;4975494;28;20019;-68
2022/03/29 07:20:16;;;;;;;28.27;11.57;;;;;;;17.73;40.30;101075.00;4974901;28;20045;-68
2022/03/29 07:22:42;;;;;;;25.67;12.65;;;;;;;17.78;40.43;101068.06;4976285;28;20439;-69
2022/03/29 07:25:08;;;;;;;30.48;12.60;;;;;;;17.87;41.03;101072.47;4975601;28;20118;-68
2022/03/29 07:27:34;;;;;;;33.80;13.18;;;;;;;17.95;41.35;101068.94;4974756;28;20022;-68
2022/03/29 07:30:00;;;;;;;27.38;12.77;;;;;;;18.04;40.27;101065.16;4974329;28;20031;-68
2022/03/29 07:32:27;;;;;;;25.58;11.95;;;;;;;18.10;41.07;101061.78;4976086;28;20054;-69
2022/03/29 07:34:54;;;;;;;27.05;12.10;;;;;;;18.19;40.54;101068.03;4975235;28;20060;-68
2022/03/29 07:37:20;;;;;;;34.60;12.60;;;;;;;18.26;40.94;101056.31;4975541;28;20027;-68
2022/03/29 07:39:46;;;;;;;30.35;12.38;;;;;;;18.36;40.39;101067.84;4975347;28;20026;-68
2022/03/29 07:42:12;;;;;;;25.70;12.93;;;;;;;18.45;39.64;101063.25;4975869;28;20033;-67
2022/03/29 07:44:37;;;;;;;28.50;11.88;;;;;;;18.54;40.24;101076.63;4958003;28;20063;-68
2022/03/29 07:47:03;;;;;;;25.30;12.52;;;;;;;18.67;40.13;101077.94;4975312;28;20041;-68
2022/03/29 07:49:29;;;;;;;25.17;12.45;;;;;;;18.81;40.28;101074.50;4975251;28;20054;-68
2022/03/29 07:51:55;;;;;;;31.25;11.85;;;;;;;18.99;40.21;101075.06;4975318;28;20484;-69
2022/03/29 07:54:21;;;;;;;28.20;13.40;;;;;;;19.13;40.03;101075.16;4973829;28;20026;-68
2022/03/29 07:56:46;;;;;;;29.40;12.50;;;;;;;19.29;39.65;101067.94;4975317;28;20424;-68
2022/03/29 07:59:12;;;;;;;26.90;12.93;;;;;;;19.42;39.51;101065.50;4975035;28;20031;-68
2022/03/29 08:01:37;;;;;;;29.05;12.60;;;;;;;19.55;39.90;101068.47;4975261;28;20027;-68
2022/03/29 08:04:03;;;;;;;24.20;11.98;;;;;;;19.66;39.19;101063.44;4975640;28;20085;-69
2022/03/29 08:06:29;;;;;;;26.23;13.50;;;;;;;19.78;39.48;101066.59;4975343;28;20023;-68
2022/03/29 08:08:55;;;;;;;26.98;12.38;;;;;;;19.87;39.04;101059.19;4974989;28;20027;-68
2022/03/29 08:11:22;;;;;;;33.67;13.27;;;;;;;19.90;39.52;101065.13;4974853;28;20022;-69
2022/03/29 08:13:47;;;;;;;34.45;12.95;;;;;;;19.98;39.35;101059.63;4973676;28;20476;-69
2022/03/29 08:16:13;;;;;;;30.98;13.10;;;;;;;20.06;39.43;101056.81;4975020;28;20042;-68
2022/03/29 08:18:39;;;;;;;25.90;12.75;;;;;;;20.13;39.37;101052.31;4973581;28;20035;-68
2022/03/29 08:21:47;;;;;;;30.33;12.75;;;;;;;20.32;39.40;101051.78;4974845;28;20027;-68
2022/03/29 08:23:50;;;;;;;24.38;11.93;;;;;;;20.54;38.91;101046.47;4974756;28;20489;-68
2022/03/29 08:26:16;;;;;;;25.70;12.30;;;;;;;20.68;38.18;101051.03;4974870;28;20081;-68
2022/03/29 08:28:41;;;;;;;26.88;13.00;;;;;;;20.86;38.41;101043.31;4975007;28;20027;-68
2022/03/29 08:31:06;;;;;;;26.38;13.30;;;;;;;21.07;38.17;101053.41;4974738;28;20028;-68
2022/03/29 08:33:32;;;;;;;34.35;14.00;;;;;;;21.36;37.84;101040.56;4979074;28;20468;-68
2022/03/29 08:35:57;;;;;;;24.20;12.57;;;;;;;21.55;37.62;101039.09;4978814;28;20439;-68
2022/03/29 08:38:24;;;;;;;26.38;12.82;;;;;;;21.78;37.25;101034.25;4978455;28;20025;-68
2022/03/29 08:40:54;;;;;;;30.35;13.43;;;;;;;22.03;36.98;101035.53;4977673;28;20034;-68
2022/03/29 08:43:21;;;;;;;29.10;14.20;;;;;;;22.27;37.12;101031.50;4978921;28;20077;-68
2022/03/29 08:45:49;;;;;;;27.58;13.00;;;;;;;22.48;36.60;101027.84;4978825;28;20034;-68
2022/03/29 08:48:15;;;;;;;29.58;12.70;;;;;;;22.73;37.12;101028.19;4977297;28;20034;-68
2022/03/29 08:50:41;;;;;;;29.10;13.48;;;;;;;22.87;36.07;101022.59;4961662;28;20184;-68
2022/03/29 08:53:10;;;;;;;21.90;12.30;;;;;;;23.02;36.76;101019.72;4978537;28;20111;-68
2022/03/29 08:55:41;;;;;;;25.55;12.95;;;;;;;23.13;36.80;101021.84;4978481;28;20384;-68
2022/03/29 08:58:06;;;;;;;29.27;12.75;;;;;;;23.21;36.75;101024.38;4978489;28;20376;-68
2022/03/29 09:00:32;;;;;;;26.25;12.73;;;;;;;23.45;36.38;101014.81;4978611;28;20038;-68
2022/03/29 09:02:58;;;;;;;23.95;13.20;;;;;;;23.58;36.47;101021.13;4978419;28;20037;-68
2022/03/29 09:05:26;;;;;;;26.58;13.07;;;;;;;23.62;36.60;101022.38;4977254;28;20476;-68
2022/03/29 09:07:55;;;;;;;33.28;14.57;;;;;;;23.65;36.21;101021.97;4977010;28;20387;-68
2022/03/29 09:10:46;;;;;;;31.27;13.60;;;;;;;23.70;36.32;101016.69;4978378;28;20030;-68
2022/03/29 09:13:15;;;;;;;26.55;13.45;;;;;;;24.06;35.46;101009.97;4963435;28;20445;-68
2022/03/29 09:15:41;;;;;;;27.17;13.27;;;;;;;24.04;35.13;101003.84;4979126;28;20487;-68
2022/03/29 09:18:08;;;;;;;26.85;13.35;;;;;;;24.16;35.43;101007.66;4978518;28;20050;-68
2022/03/29 09:20:33;;;;;;;35.15;13.45;;;;;;;24.36;35.38;101002.13;4978315;28;20082;-68
2022/03/29 09:22:58;;;;;;;26.90;13.68;;;;;;;24.56;35.22;101003.75;4978518;28;20066;-68
2022/03/29 09:25:35;;;;;;;32.28;13.60;;;;;;;24.72;34.35;101000.53;4978474;28;20033;-68
2022/03/29 09:28:03;;;;;;;28.02;13.65;;;;;;;24.96;34.59;100998.13;4976981;28;20447;-68
2022/03/29 09:30:38;;;;;;;28.42;13.55;;;;;;;25.12;34.01;100986.66;4978512;28;20070;-69
2022/03/29 09:33:09;;;;;;;25.30;12.88;;;;;;;25.18;34.18;100988.53;4978233;28;20023;-68
2022/03/29 09:35:37;;;;;;;25.77;12.68;;;;;;;25.25;33.93;100981.06;4978003;28;20026;-68
2022/03/29 09:38:20;;;;;;;30.75;13.85;;;;;;;25.16;34.23;100977.75;4976725;28;20392;-68
2022/03/29 09:40:46;;;;;;;28.48;14.27;;;;;;;25.06;34.50;100973.81;4976580;28;20034;-68
2022/03/29 09:43:11;;;;;;;27.20;13.95;;;;;;;24.92;34.51;100969.47;4977158;28;20480;-68
2022/03/29 09:45:46;;;;;;;26.48;13.73;;;;;;;24.72;34.82;100973.13;4978172;28;20450;-68
2022/03/29 09:48:31;;;;;;;29.67;14.18;;;;;;;24.58;34.80;100967.91;4978038;28;20492;-68
2022/03/29 09:51:14;;;;;;;30.40;15.32;;;;;;;24.41;34.14;100967.56;4977734;28;20097;-68
2022/03/29 09:53:43;;;;;;;;;;;;;;;24.40;34.70;100967.78;4978303;28;20049;-68
2022/03/29 09:56:11;;;;;;;26.52;14.80;;;;;;;24.40;34.28;100960.38;4976490;28;19910;-68
2022/03/29 09:58:37;;;;;;;30.58;14.95;;;;;;;24.37;34.48;100949.91;4977402;28;20043;-68
2022/03/29 10:01:05;;;;;;;27.33;14.77;;;;;;;24.37;34.25;100954.53;4977732;28;20495;-68
2022/03/29 10:03:33;;;;;;;26.25;13.82;;;;;;;24.29;34.35;100939.16;4977428;28;20027;-68
2022/03/29 10:06:04;;;;;;;29.85;14.90;;;;;;;24.22;34.98;100941.94;4977165;28;20031;-68
2022/03/29 10:11:26;;;;;;;29.92;15.43;;;;;;;24.06;34.81;100938.78;4976477;28;20098;-68
2022/03/29 10:13:52;;;;;;;31.63;15.40;;;;;;;24.03;34.91;100934.59;4977233;28;20054;-67
2022/03/29 10:16:18;;;;;;;31.88;15.30;;;;;;;23.98;35.16;100939.03;4959841;28;20092;-67
2022/03/29 10:18:46;;;;;;;23.52;13.48;;;;;;;23.95;34.66;100939.44;4977305;28;20062;-68
2022/03/29 10:21:14;;;;;;;26.95;14.77;;;;;;;23.84;35.28;100932.72;4976796;28;20034;-68
2022/03/29 10:23:43;;;;;;;38.65;15.35;;;;;;;23.74;34.76;100927.69;4977000;28;20058;-68
2022/03/29 10:26:09;;;;;;;29.27;14.57;;;;;;;23.69;35.11;100930.22;4976937;28;20039;-68
2022/03/29 10:28:35;;;;;;;32.10;14.77;;;;;;;23.67;35.40;100921.38;4976988;28;20027;-67
2022/03/29 10:31:01;;;;;;;31.00;14.82;;;;;;;23.64;34.91;100927.28;4976564;28;20027;-69
2022/03/29 10:33:33;;;;;;;32.80;15.50;;;;;;;23.58;34.78;100930.88;4976796;28;20077;-68
2022/03/29 10:35:58;;;;;;;34.25;15.52;;;;;;;23.56;34.59;100916.53;4975867;28;20030;-68
2022/03/29 10:38:46;;;;;;;33.28;18.30;;;;;;;23.57;35.36;100915.50;4976366;28;20030;-68
2022/03/29 10:41:29;;;;;;;45.80;18.10;;;;;;;23.60;34.47;100920.53;4976809;28;20396;-68
2022/03/29 10:44:05;;;;;;;36.80;18.08;;;;;;;23.65;34.93;100912.53;4976924;28;20078;-68
2022/03/29 10:46:41;;;;;;;41.33;18.60;;;;;;;23.68;35.35;100906.66;4976990;28;20027;-68
2022/03/29 10:49:20;;;;;;;36.92;17.33;;;;;;;23.74;34.36;100900.31;4976808;28;20133;-68
2022/03/29 10:51:50;;;;;;;41.45;19.27;;;;;;;23.87;35.05;100893.16;4976695;28;20027;-68
2022/03/29 10:54:25;;;;;;;46.40;18.55;;;;;;;23.97;34.82;100893.53;4976612;28;20547;-68
2022/03/29 10:57:01;;;;;;;42.28;18.83;;;;;;;24.10;34.20;100890.78;4976698;28;20019;-68
2022/03/29 10:59:28;;;;;;;44.75;20.63;;;;;;;24.31;34.44;100891.34;4976947;28;20370;-68
2022/03/29 11:02:08;;;;;;;47.20;20.05;;;;;;;24.56;34.50;100891.44;4977654;28;20488;-68
2022/03/29 11:04:33;;;;;;;50.05;21.33;;;;;;;24.74;33.69;100880.56;4976763;28;20037;-68
2022/03/29 11:07:05;;;;;;;53.33;21.00;;;;;;;24.87;34.08;100885.19;4976503;28;20022;-69
2022/03/29 11:09:31;;;;;;;53.67;23.30;;;;;;;24.96;33.44;100872.84;4976315;28;20023;-69
2022/03/29 11:11:56;;;;;;;53.63;22.52;;;;;;;24.99;33.44;100877.91;4976244;28;20388;-68
2022/03/29 11:14:33;;;;;;;54.65;23.80;;;;;;;25.05;33.49;100871.53;4976076;28;20022;-68
2022/03/29 11:17:11;;;;;;;49.10;21.83;;;;;;;25.05;33.82;100867.94;4976041;28;20030;-68
2022/03/29 11:19:46;;;;;;;63.38;23.30;;;;;;;25.13;33.51;100867.66;4976476;28;20023;-68
2022/03/29 11:22:29;;;;;;;59.28;24.17;;;;;;;25.43;33.23;100865.94;4975979;28;20389;-68